Tonic Sea — D5AZ8 — position and weather

sailwx.info

Track history (hours):
 
Tides and Currents Weather Stations Pressure Air Temp Water Temp Dewpoint Dewpoint Depression Visibility Wind Speed Wind Dir Waves Ship Positions

Tonic Sea

Last reported at 2016-Aug-24 01:18 UTC. Time now 2016-Aug-25 02:41 UTC.
Position N 48°16' W 006°17'.

Length 229 m; draft 13.1 m.

Type: Cargo ship. MMSI: 636015479.

Date/timePositionNaut miles runAvg speedWind from/ knotsBaromVisibWave heightAir tempDewpointWater temp
2016-Aug-24 01:18N 48°16' W 006°17'912.0
2016-Aug-24 00:33N 48°24' W 006°10'1212.0
2016-Aug-23 23:33N 48°34' W 006°02'1111.5
2016-Aug-23 22:33N 48°45' W 005°54'1110.8
2016-Aug-23 21:33N 48°54' W 005°46'9 9.3
2016-Aug-23 20:33N 48°59' W 005°34'9 8.8
2016-Aug-23 19:33N 49°04' W 005°22'9 8.6
2016-Aug-23 18:33N 49°08' W 005°11'9 9.0
2016-Aug-23 17:33N 49°13' W 004°59'2210.2
2016-Aug-23 15:26N 49°24' W 004°31'1111.2
2016-Aug-23 14:30N 49°29' W 004°16'1111.2
2016-Aug-23 13:33N 49°34' W 004°02'1110.7
2016-Aug-23 12:33N 49°39' W 003°48'1010.0
2016-Aug-23 11:33N 49°44' W 003°35'9 9.3
2016-Aug-23 10:33N 49°49' W 003°22'9 9.0
2016-Aug-23 09:33N 49°53' W 003°10'9 9.4
2016-Aug-23 08:33N 49°58' W 002°57'1010.4
2016-Aug-23 07:33N 50°02' W 002°42'1212.1
2016-Aug-23 06:32N 50°05' W 002°24'1414.0
2016-Aug-23 05:33N 50°09' W 002°03'1514.9
2016-Aug-23 04:33N 50°13' W 001°41'1414.3
2016-Aug-23 03:33N 50°17' W 001°20'1312.7
2016-Aug-23 02:33N 50°20' W 001°00'1010.3
2016-Aug-23 01:33N 50°23' W 000°45'9 8.7
2016-Aug-23 00:33N 50°25' W 000°32'8 8.4
2016-Aug-22 23:33N 50°28' W 000°19'9 8.7
2016-Aug-22 22:33N 50°30' W 000°06'9 9.5
2016-Aug-22 21:33N 50°32' E 000°09'1111.0
2016-Aug-22 20:33N 50°35' E 000°25'1211.7
2016-Aug-22 19:33N 50°40' E 000°42'1211.7
2016-Aug-22 18:33N 50°48' E 000°56'1110.6
2016-Aug-22 17:33N 50°54' E 001°09'9 9.1
2016-Aug-22 16:33N 51°00' E 001°20'7 7.5
2016-Aug-22 15:33N 51°05' E 001°29'6 6.4
2016-Aug-22 14:33N 51°09' E 001°37'7 7.0
2016-Aug-22 13:34N 51°14' E 001°46'10 9.6
2016-Aug-22 12:33N 51°23' E 001°52'1211.6
2016-Aug-22 11:33N 51°32' E 002°02'1312.5
2016-Aug-22 10:30N 51°42' E 002°17'1112.2
2016-Aug-22 09:33N 51°50' E 002°29'1311.0
2016-Aug-22 08:21N 52°00' E 002°43'81 9.8
2016-Aug-22 00:05N 53°03' E 004°10'611.2
2016-Aug-21 23:33N 53°06' E 004°17'1110.6
2016-Aug-21 22:33N 53°15' E 004°28'1010.5
2016-Aug-21 21:33N 53°25' E 004°33'12 9.8
2016-Aug-21 20:17N 53°37' E 004°39'7 9.6
2016-Aug-21 19:33N 53°43' E 004°44'10 9.7
2016-Aug-21 18:32N 53°52' E 004°50'1010.0
2016-Aug-21 17:33N 54°01' E 004°57'1410.6
2016-Aug-21 16:14N 54°14' E 005°05'286 9.3
2016-Aug-20 09:33N 57°44' E 010°53'1110.7
2016-Aug-20 08:33N 57°37' E 011°08'1010.1
2016-Aug-20 07:33N 57°31' E 011°23'10 9.5
2016-Aug-20 06:33N 57°22' E 011°30'1010.0
2016-Aug-20 05:32N 57°13' E 011°36'1010.2
2016-Aug-20 04:33N 57°03' E 011°42'1010.2
2016-Aug-20 03:33N 56°54' E 011°49'10 9.1
2016-Aug-20 02:27N 56°44' E 011°51'910.5
2016-Aug-20 01:33N 56°38' E 011°38'10 9.8
2016-Aug-20 00:29N 56°31' E 011°23'1010.0
2016-Aug-19 23:32N 56°25' E 011°09'1010.5
2016-Aug-19 22:33N 56°15' E 011°06'1212.1
2016-Aug-19 21:33N 56°03' E 011°05'1211.7
2016-Aug-19 20:33N 55°54' E 010°52'2811.8
2016-Aug-19 18:13N 55°27' E 010°57'812.4
2016-Aug-19 17:33N 55°19' E 011°02'1110.6
2016-Aug-19 16:33N 55°08' E 010°59'1211.9
2016-Aug-19 15:33N 54°57' E 010°54'1312.5
2016-Aug-19 14:33N 54°45' E 010°48'9 9.3
2016-Aug-19 13:33N 54°37' E 010°57'1212.2
2016-Aug-19 12:33N 54°34' E 011°17'1312.7
2016-Aug-19 11:33N 54°29' E 011°37'1312.7
2016-Aug-19 10:33N 54°26' E 011°58'1110.6
2016-Aug-19 09:33N 54°32' E 012°14'9 9.4
2016-Aug-19 08:33N 54°39' E 012°24'14 9.4
2016-Aug-19 07:04N 54°48' E 012°43'35 9.8
2016-Aug-19 03:33N 54°59' E 013°40'10 9.9
2016-Aug-19 02:33N 55°03' E 013°56'10 9.6
2016-Aug-19 01:33N 55°08' E 014°10'10 9.8
2016-Aug-19 00:33N 55°16' E 014°21'1110.5
2016-Aug-18 23:33N 55°24' E 014°33'1010.1
2016-Aug-18 22:33N 55°29' E 014°47'1010.1
2016-Aug-18 21:33N 55°34' E 015°04'10 9.7
2016-Aug-18 20:31N 55°38' E 015°20'  
Track history (hours):
 
Tides and Currents Weather Stations Pressure Air Temp Water Temp Dewpoint Dewpoint Depression Visibility Wind Speed Wind Dir Waves Ship Positions

Tonic Sea

Last reported at 2016-Aug-24 01:18 UTC. Time now 2016-Aug-25 02:41 UTC.
Position N 48°16' W 006°17'.

Length 229 m; draft 13.1 m.

Type: Cargo ship. MMSI: 636015479.

Date/timePositionNaut miles runAvg speedWind from/ knotsBaromVisibWave heightAir tempDewpointWater temp
2016-Aug-24 01:18N 48°16' W 006°17'912.0
2016-Aug-24 00:33N 48°24' W 006°10'1212.0
2016-Aug-23 23:33N 48°34' W 006°02'1111.5
2016-Aug-23 22:33N 48°45' W 005°54'1110.8
2016-Aug-23 21:33N 48°54' W 005°46'9 9.3
2016-Aug-23 20:33N 48°59' W 005°34'9 8.8
2016-Aug-23 19:33N 49°04' W 005°22'9 8.6
2016-Aug-23 18:33N 49°08' W 005°11'9 9.0
2016-Aug-23 17:33N 49°13' W 004°59'2210.2
2016-Aug-23 15:26N 49°24' W 004°31'1111.2
2016-Aug-23 14:30N 49°29' W 004°16'1111.2
2016-Aug-23 13:33N 49°34' W 004°02'1110.7
2016-Aug-23 12:33N 49°39' W 003°48'1010.0
2016-Aug-23 11:33N 49°44' W 003°35'9 9.3
2016-Aug-23 10:33N 49°49' W 003°22'9 9.0
2016-Aug-23 09:33N 49°53' W 003°10'9 9.4
2016-Aug-23 08:33N 49°58' W 002°57'1010.4
2016-Aug-23 07:33N 50°02' W 002°42'1212.1
2016-Aug-23 06:32N 50°05' W 002°24'1414.0
2016-Aug-23 05:33N 50°09' W 002°03'1514.9
2016-Aug-23 04:33N 50°13' W 001°41'1414.3
2016-Aug-23 03:33N 50°17' W 001°20'1312.7
2016-Aug-23 02:33N 50°20' W 001°00'1010.3
2016-Aug-23 01:33N 50°23' W 000°45'9 8.7
2016-Aug-23 00:33N 50°25' W 000°32'8 8.4
2016-Aug-22 23:33N 50°28' W 000°19'9 8.7
2016-Aug-22 22:33N 50°30' W 000°06'9 9.5
2016-Aug-22 21:33N 50°32' E 000°09'1111.0
2016-Aug-22 20:33N 50°35' E 000°25'1211.7
2016-Aug-22 19:33N 50°40' E 000°42'1211.7
2016-Aug-22 18:33N 50°48' E 000°56'1110.6
2016-Aug-22 17:33N 50°54' E 001°09'9 9.1
2016-Aug-22 16:33N 51°00' E 001°20'7 7.5
2016-Aug-22 15:33N 51°05' E 001°29'6 6.4
2016-Aug-22 14:33N 51°09' E 001°37'7 7.0
2016-Aug-22 13:34N 51°14' E 001°46'10 9.6
2016-Aug-22 12:33N 51°23' E 001°52'1211.6
2016-Aug-22 11:33N 51°32' E 002°02'1312.5
2016-Aug-22 10:30N 51°42' E 002°17'1112.2
2016-Aug-22 09:33N 51°50' E 002°29'1311.0
2016-Aug-22 08:21N 52°00' E 002°43'81 9.8
2016-Aug-22 00:05N 53°03' E 004°10'611.2
2016-Aug-21 23:33N 53°06' E 004°17'1110.6
2016-Aug-21 22:33N 53°15' E 004°28'1010.5
2016-Aug-21 21:33N 53°25' E 004°33'12 9.8
2016-Aug-21 20:17N 53°37' E 004°39'7 9.6
2016-Aug-21 19:33N 53°43' E 004°44'10 9.7
2016-Aug-21 18:32N 53°52' E 004°50'1010.0
2016-Aug-21 17:33N 54°01' E 004°57'1410.6
2016-Aug-21 16:14N 54°14' E 005°05'286 9.3
2016-Aug-20 09:33N 57°44' E 010°53'1110.7
2016-Aug-20 08:33N 57°37' E 011°08'1010.1
2016-Aug-20 07:33N 57°31' E 011°23'10 9.5
2016-Aug-20 06:33N 57°22' E 011°30'1010.0
2016-Aug-20 05:32N 57°13' E 011°36'1010.2
2016-Aug-20 04:33N 57°03' E 011°42'1010.2
2016-Aug-20 03:33N 56°54' E 011°49'10 9.1
2016-Aug-20 02:27N 56°44' E 011°51'910.5
2016-Aug-20 01:33N 56°38' E 011°38'10 9.8
2016-Aug-20 00:29N 56°31' E 011°23'1010.0
2016-Aug-19 23:32N 56°25' E 011°09'1010.5
2016-Aug-19 22:33N 56°15' E 011°06'1212.1
2016-Aug-19 21:33N 56°03' E 011°05'1211.7
2016-Aug-19 20:33N 55°54' E 010°52'2811.8
2016-Aug-19 18:13N 55°27' E 010°57'812.4
2016-Aug-19 17:33N 55°19' E 011°02'1110.6
2016-Aug-19 16:33N 55°08' E 010°59'1211.9
2016-Aug-19 15:33N 54°57' E 010°54'1312.5
2016-Aug-19 14:33N 54°45' E 010°48'9 9.3
2016-Aug-19 13:33N 54°37' E 010°57'1212.2
2016-Aug-19 12:33N 54°34' E 011°17'1312.7
2016-Aug-19 11:33N 54°29' E 011°37'1312.7
2016-Aug-19 10:33N 54°26' E 011°58'1110.6
2016-Aug-19 09:33N 54°32' E 012°14'9 9.4
2016-Aug-19 08:33N 54°39' E 012°24'14 9.4
2016-Aug-19 07:04N 54°48' E 012°43'35 9.8
2016-Aug-19 03:33N 54°59' E 013°40'10 9.9
2016-Aug-19 02:33N 55°03' E 013°56'10 9.6
2016-Aug-19 01:33N 55°08' E 014°10'10 9.8
2016-Aug-19 00:33N 55°16' E 014°21'1110.5
2016-Aug-18 23:33N 55°24' E 014°33'1010.1
2016-Aug-18 22:33N 55°29' E 014°47'1010.1
2016-Aug-18 21:33N 55°34' E 015°04'10 9.7
2016-Aug-18 20:31N 55°38' E 015°20'  

Dump ship's entire track history